Time;durP1;ratioP1;P1;durP2;ratioP2;P2;SDS_P1;SDS_P2;PMS_P1;PMS_P2;Temp;Humidity;BMP_temperature;BMP_pressure;BME280_temperature;BME280_humidity;BME280_pressure;Samples;Min_cycle;Max_cycle;Signal;HPM_P1;HPM_P2
2023/09/30 00:01:29;;;;;;;13.52;5.00;;;;;;;;;;5012882;28;20255;-72
2023/09/30 00:03:54;;;;;;;12.48;5.05;;;;;;;;;;5014708;28;20402;-72
2023/09/30 00:06:19;;;;;;;12.70;5.03;;;;;;;;;;5013972;28;20337;-72
2023/09/30 00:08:45;;;;;;;13.70;5.18;;;;;;;;;;5014519;28;20080;-72
2023/09/30 00:11:11;;;;;;;17.48;5.35;;;;;;;;;;5014234;28;20022;-72
2023/09/30 00:13:36;;;;;;;10.27;5.00;;;;;;;;;;5013986;28;20045;-72
2023/09/30 00:16:01;;;;;;;14.20;5.07;;;;;;;;;;5013880;28;20028;-72
2023/09/30 00:18:27;;;;;;;12.77;5.10;;;;;;;;;;5013835;28;20255;-72
2023/09/30 00:20:53;;;;;;;11.98;4.07;;;;;;;;;;5013949;28;20816;-72
2023/09/30 00:23:20;;;;;;;15.00;3.92;;;;;;;;;;5012495;28;20034;-72
2023/09/30 00:25:46;;;;;;;10.50;4.25;;;;;;;;;;5013861;28;20516;-72
2023/09/30 00:28:11;;;;;;;10.35;3.70;;;;;;;;;;5012304;28;20022;-71
2023/09/30 00:30:38;;;;;;;10.32;3.90;;;;;;;;;;5013828;28;20033;-72
2023/09/30 00:33:03;;;;;;;9.02;3.45;;;;;;;;;;5013816;28;20022;-72
2023/09/30 00:35:32;;;;;;;8.73;2.60;;;;;;;;;;5013916;28;20087;-72
2023/09/30 00:37:57;;;;;;;7.78;2.47;;;;;;;;;;5013639;28;20436;-72
2023/09/30 00:40:22;;;;;;;5.70;2.30;;;;;;;;;;5013459;28;20101;-72
2023/09/30 00:42:48;;;;;;;4.53;1.75;;;;;;;;;;5013580;28;20026;-72
2023/09/30 00:45:13;;;;;;;3.47;1.50;;;;;;;;;;5013519;28;20084;-72
2023/09/30 00:47:39;;;;;;;6.53;1.70;;;;;;;;;;5012088;28;20385;-72
2023/09/30 00:50:07;;;;;;;2.17;1.20;;;;;;;;;;5013431;28;20263;-72
2023/09/30 00:52:33;;;;;;;11.38;1.38;;;;;;;;;;5013392;28;20036;-73
2023/09/30 00:54:59;;;;;;;4.82;1.60;;;;;;;;;;5012051;28;20021;-73
2023/09/30 00:57:25;;;;;;;2.90;1.20;;;;;;;;;;5013347;28;20045;-73
2023/09/30 00:59:51;;;;;;;3.25;1.20;;;;;;;;;;5013250;28;20026;-72
2023/09/30 01:02:18;;;;;;;8.50;1.10;;;;;;;;;;5013317;28;20094;-72
2023/09/30 01:04:43;;;;;;;2.25;1.27;;;;;;;;;;5013488;28;20433;-72
2023/09/30 01:07:09;;;;;;;2.88;1.20;;;;;;;;;;5013308;28;20113;-73
2023/09/30 01:09:36;;;;;;;2.58;1.20;;;;;;;;;;5012796;28;20432;-72
2023/09/30 01:12:02;;;;;;;2.78;1.30;;;;;;;;;;5011787;28;20153;-73
2023/09/30 01:14:29;;;;;;;2.40;1.30;;;;;;;;;;5012715;28;20033;-74
2023/09/30 01:16:55;;;;;;;1.75;0.90;;;;;;;;;;5014285;28;20060;-73
2023/09/30 01:19:20;;;;;;;2.10;0.77;;;;;;;;;;5017354;28;20030;-72
2023/09/30 01:21:48;;;;;;;11.35;0.88;;;;;;;;;;5017941;28;20076;-72
2023/09/30 01:24:14;;;;;;;1.55;0.80;;;;;;;;;;5017744;28;20030;-79
2023/09/30 01:26:39;;;;;;;1.92;0.85;;;;;;;;;;5018116;28;20053;-75
2023/09/30 01:29:05;;;;;;;1.30;0.60;;;;;;;;;;5016861;28;20456;-72
2023/09/30 01:31:30;;;;;;;1.00;0.50;;;;;;;;;;5016938;28;20079;-71
2023/09/30 01:33:55;;;;;;;1.33;0.40;;;;;;;;;;5016598;28;20500;-72
2023/09/30 01:36:21;;;;;;;1.88;0.60;;;;;;;;;;5017160;28;20603;-75
2023/09/30 01:38:46;;;;;;;0.68;0.60;;;;;;;;;;5017198;28;20026;-79
2023/09/30 01:41:11;;;;;;;0.88;0.30;;;;;;;;;;5016457;28;20022;-73
2023/09/30 01:43:37;;;;;;;0.57;0.50;;;;;;;;;;5017525;28;20025;-72
2023/09/30 01:46:10;;;;;;;1.55;0.65;;;;;;;;;;5018508;28;20017;-84
2023/09/30 01:48:35;;;;;;;2.47;0.40;;;;;;;;;;5018055;28;20026;-78
2023/09/30 01:51:24;;;;;;;4.75;0.95;;;;;;;;;;5070837;28;20410;-72
2023/09/30 01:53:50;;;;;;;1.35;0.88;;;;;;;;;;5069568;28;20587;-73
2023/09/30 01:56:15;;;;;;;2.13;0.80;;;;;;;;;;5069220;28;20107;-73
2023/09/30 01:58:41;;;;;;;3.55;0.90;;;;;;;;;;5070001;28;20079;-72
2023/09/30 02:01:06;;;;;;;3.78;0.80;;;;;;;;;;5069815;28;20523;-73
2023/09/30 02:03:32;;;;;;;4.67;0.83;;;;;;;;;;5070318;28;20047;-72
2023/09/30 02:05:57;;;;;;;3.75;1.15;;;;;;;;;;5069446;28;20261;-72
2023/09/30 02:08:23;;;;;;;1.92;0.88;;;;;;;;;;5068865;28;20016;-72
2023/09/30 02:10:48;;;;;;;3.75;1.10;;;;;;;;;;5070625;28;20158;-74
2023/09/30 02:13:14;;;;;;;2.15;0.90;;;;;;;;;;5068807;28;20057;-72
2023/09/30 02:15:42;;;;;;;1.50;0.90;;;;;;;;;;5067406;28;20028;-72
2023/09/30 02:18:09;;;;;;;2.65;1.00;;;;;;;;;;5068634;28;20029;-72
2023/09/30 02:20:34;;;;;;;5.00;1.10;;;;;;;;;;5068020;28;20017;-73
2023/09/30 02:23:02;;;;;;;3.03;1.05;;;;;;;;;;5067589;28;20032;-72
2023/09/30 02:25:27;;;;;;;2.92;1.40;;;;;;;;;;5069694;28;20074;-72
2023/09/30 02:27:52;;;;;;;1.17;0.90;;;;;;;;;;5069930;28;20025;-72
2023/09/30 02:30:17;;;;;;;3.10;1.27;;;;;;;;;;5069387;28;20472;-72
2023/09/30 02:32:46;;;;;;;1.88;1.20;;;;;;;;;;5068521;28;20258;-72
2023/09/30 02:35:11;;;;;;;2.33;1.02;;;;;;;;;;5069785;28;20017;-72
2023/09/30 02:37:37;;;;;;;3.05;1.20;;;;;;;;;;5069496;28;20028;-72
2023/09/30 02:40:09;;;;;;;4.15;1.20;;;;;;;;;;5069385;28;20090;-71
2023/09/30 02:42:36;;;;;;;3.15;1.15;;;;;;;;;;5069685;28;20035;-72
2023/09/30 02:45:02;;;;;;;5.68;1.10;;;;;;;;;;5069393;28;20021;-72
2023/09/30 02:47:28;;;;;;;3.75;1.20;;;;;;;;;;5069205;28;20025;-72
2023/09/30 02:49:54;;;;;;;2.27;1.10;;;;;;;;;;5069028;28;20078;-72
2023/09/30 02:52:20;;;;;;;2.63;1.10;;;;;;;;;;5069132;28;20273;-72
2023/09/30 02:54:46;;;;;;;3.70;1.23;;;;;;;;;;5069050;28;20108;-72
2023/09/30 02:57:11;;;;;;;4.13;1.00;;;;;;;;;;5069287;28;20494;-72
2023/09/30 02:59:36;;;;;;;2.53;1.07;;;;;;;;;;5068966;28;20280;-71
2023/09/30 03:02:03;;;;;;;6.53;1.52;;;;;;;;;;5060036;28;20254;-71
2023/09/30 03:04:28;;;;;;;11.35;1.40;;;;;;;;;;5055722;28;20029;-71
2023/09/30 03:06:56;;;;;;;4.97;1.25;;;;;;;;;;5055617;28;20047;-71
2023/09/30 03:09:22;;;;;;;3.20;1.30;;;;;;;;;;5055655;28;20028;-71
2023/09/30 03:11:48;;;;;;;3.17;1.13;;;;;;;;;;5054282;28;20091;-71
2023/09/30 03:14:13;;;;;;;4.53;1.60;;;;;;;;;;5055503;28;20033;-71
2023/09/30 03:16:40;;;;;;;4.78;1.42;;;;;;;;;;5054244;28;20090;-71
2023/09/30 03:19:05;;;;;;;5.55;1.70;;;;;;;;;;5055633;28;20028;-71
2023/09/30 03:21:30;;;;;;;7.28;1.67;;;;;;;;;;5055617;28;20017;-70
2023/09/30 03:23:56;;;;;;;4.43;1.37;;;;;;;;;;5055329;28;20025;-71
2023/09/30 03:26:22;;;;;;;2.55;1.10;;;;;;;;;;5053965;28;20316;-70
2023/09/30 03:28:47;;;;;;;5.40;2.13;;;;;;;;;;5054181;28;20127;-71
2023/09/30 03:31:12;;;;;;;8.77;1.70;;;;;;;;;;5055411;28;20064;-71
2023/09/30 03:33:37;;;;;;;5.80;1.40;;;;;;;;;;5055428;28;20632;-71
2023/09/30 03:36:03;;;;;;;5.43;1.58;;;;;;;;;;5053841;28;20071;-71
2023/09/30 03:38:29;;;;;;;5.35;1.65;;;;;;;;;;5054035;28;20043;-71
2023/09/30 03:40:54;;;;;;;2.05;0.90;;;;;;;;;;5055206;28;20024;-71
2023/09/30 03:43:23;;;;;;;4.32;1.33;;;;;;;;;;5054987;28;20455;-71
2023/09/30 03:45:50;;;;;;;6.75;1.90;;;;;;;;;;5054957;28;20017;-71
2023/09/30 03:48:15;;;;;;;7.35;2.15;;;;;;;;;;5055167;28;20048;-71
2023/09/30 03:50:40;;;;;;;9.52;1.70;;;;;;;;;;5054501;28;20021;-71
2023/09/30 03:53:07;;;;;;;6.75;1.60;;;;;;;;;;5055056;28;20033;-71
2023/09/30 03:55:33;;;;;;;6.90;1.75;;;;;;;;;;5054762;28;20029;-71
2023/09/30 03:57:58;;;;;;;5.32;1.58;;;;;;;;;;5054652;28;20027;-71
2023/09/30 04:00:24;;;;;;;6.65;1.35;;;;;;;;;;5054847;28;20028;-71
2023/09/30 04:02:52;;;;;;;7.00;1.70;;;;;;;;;;5054806;28;20446;-72
2023/09/30 04:05:17;;;;;;;5.97;1.73;;;;;;;;;;5054674;28;20052;-71
2023/09/30 04:07:43;;;;;;;6.53;1.58;;;;;;;;;;5055038;28;20021;-70
2023/09/30 04:10:09;;;;;;;3.38;1.50;;;;;;;;;;5054381;28;20104;-72
2023/09/30 04:12:35;;;;;;;7.60;1.65;;;;;;;;;;5053754;28;20040;-72
2023/09/30 04:15:00;;;;;;;9.68;2.00;;;;;;;;;;5054243;28;20025;-71
2023/09/30 04:17:27;;;;;;;6.88;1.67;;;;;;;;;;5053009;28;20036;-71
2023/09/30 04:19:52;;;;;;;6.13;1.77;;;;;;;;;;5054130;28;20032;-71
2023/09/30 04:22:21;;;;;;;3.70;1.27;;;;;;;;;;5054150;28;20041;-71
2023/09/30 04:24:46;;;;;;;5.38;1.63;;;;;;;;;;5052902;28;20496;-71
2023/09/30 04:27:12;;;;;;;9.82;2.30;;;;;;;;;;5052867;28;20119;-73
2023/09/30 04:29:37;;;;;;;5.45;1.65;;;;;;;;;;5053913;28;20029;-72
2023/09/30 04:32:04;;;;;;;6.68;1.50;;;;;;;;;;5054032;28;20442;-72
2023/09/30 04:34:30;;;;;;;7.18;2.05;;;;;;;;;;5053940;28;20075;-72
2023/09/30 04:36:56;;;;;;;9.13;1.98;;;;;;;;;;5052709;28;20033;-72
2023/09/30 04:39:21;;;;;;;8.13;1.80;;;;;;;;;;5052562;28;20025;-72
2023/09/30 04:41:46;;;;;;;5.13;1.65;;;;;;;;;;5052599;28;20033;-72
2023/09/30 04:44:12;;;;;;;7.40;2.10;;;;;;;;;;5054097;28;20056;-72
2023/09/30 04:46:40;;;;;;;8.60;1.80;;;;;;;;;;5053770;28;20028;-72
2023/09/30 04:49:09;;;;;;;6.82;1.95;;;;;;;;;;5053385;28;20028;-72
2023/09/30 04:51:34;;;;;;;5.95;1.90;;;;;;;;;;5053958;28;20120;-72
2023/09/30 04:54:00;;;;;;;8.63;1.80;;;;;;;;;;5053561;28;20163;-72
2023/09/30 04:56:25;;;;;;;7.80;1.95;;;;;;;;;;5053563;28;20108;-72
2023/09/30 04:58:50;;;;;;;7.18;1.70;;;;;;;;;;5053461;28;20071;-72
2023/09/30 05:01:18;;;;;;;11.63;1.90;;;;;;;;;;5052203;28;20186;-72
2023/09/30 05:03:44;;;;;;;11.70;2.13;;;;;;;;;;5053419;28;20078;-72
2023/09/30 05:06:09;;;;;;;12.63;2.05;;;;;;;;;;5053361;28;20108;-72
2023/09/30 05:08:35;;;;;;;9.63;2.10;;;;;;;;;;5053365;28;20031;-72
2023/09/30 05:11:00;;;;;;;9.57;2.25;;;;;;;;;;5051914;28;20024;-72
2023/09/30 05:13:25;;;;;;;7.70;1.85;;;;;;;;;;5053338;28;20032;-72
2023/09/30 05:15:52;;;;;;;7.60;1.90;;;;;;;;;;5053247;28;20025;-72
2023/09/30 05:18:17;;;;;;;8.63;2.10;;;;;;;;;;5053495;28;20359;-72
2023/09/30 05:20:43;;;;;;;7.50;1.80;;;;;;;;;;5053075;28;20056;-72
2023/09/30 05:23:12;;;;;;;11.75;2.38;;;;;;;;;;5051860;28;20021;-72
2023/09/30 05:25:37;;;;;;;11.82;2.00;;;;;;;;;;5053118;28;20372;-72
2023/09/30 05:28:03;;;;;;;6.03;1.58;;;;;;;;;;5053111;28;20031;-72
2023/09/30 05:30:29;;;;;;;8.73;2.13;;;;;;;;;;5051960;28;20100;-73
2023/09/30 05:32:55;;;;;;;9.73;1.92;;;;;;;;;;5053300;28;20059;-72
2023/09/30 05:35:22;;;;;;;6.68;1.88;;;;;;;;;;5051995;28;20438;-72
2023/09/30 05:37:47;;;;;;;11.45;2.13;;;;;;;;;;5051660;28;20021;-72
2023/09/30 05:40:21;;;;;;;8.30;2.03;;;;;;;;;;5052845;28;20025;-70
2023/09/30 05:42:47;;;;;;;8.65;2.30;;;;;;;;;;5051939;28;20458;-72
2023/09/30 05:45:15;;;;;;;10.38;2.58;;;;;;;;;;5051547;28;20064;-70
2023/09/30 05:47:41;;;;;;;8.27;1.77;;;;;;;;;;5052779;28;20025;-70
2023/09/30 05:50:07;;;;;;;8.55;1.90;;;;;;;;;;5052557;28;20036;-71
2023/09/30 05:52:33;;;;;;;6.55;1.98;;;;;;;;;;5052743;28;20029;-71
2023/09/30 05:55:00;;;;;;;10.43;1.98;;;;;;;;;;5052812;28;20017;-71
2023/09/30 05:57:26;;;;;;;10.02;1.65;;;;;;;;;;5052747;28;20028;-71
2023/09/30 05:59:52;;;;;;;11.88;1.80;;;;;;;;;;5051589;28;20078;-70
2023/09/30 06:02:17;;;;;;;13.50;2.35;;;;;;;;;;5051378;28;20036;-71
2023/09/30 06:04:42;;;;;;;9.23;2.20;;;;;;;;;;5051382;28;20029;-70
2023/09/30 06:07:08;;;;;;;8.40;2.00;;;;;;;;;;5052648;28;20341;-71
2023/09/30 06:09:33;;;;;;;6.93;2.05;;;;;;;;;;5052507;28;20309;-72
2023/09/30 06:11:59;;;;;;;6.70;2.13;;;;;;;;;;5052848;28;20472;-71
2023/09/30 06:14:27;;;;;;;8.25;1.73;;;;;;;;;;5052506;28;20258;-72
2023/09/30 06:16:53;;;;;;;7.68;2.10;;;;;;;;;;5051294;28;20029;-72
2023/09/30 06:19:18;;;;;;;9.57;2.10;;;;;;;;;;5052677;28;20025;-72
2023/09/30 06:21:43;;;;;;;6.53;2.00;;;;;;;;;;5051213;28;20297;-71
2023/09/30 06:24:08;;;;;;;9.10;2.28;;;;;;;;;;5051219;28;20266;-72
2023/09/30 06:26:34;;;;;;;10.77;2.28;;;;;;;;;;5052466;28;20083;-72
2023/09/30 06:29:00;;;;;;;7.87;1.97;;;;;;;;;;5051188;28;20037;-72
2023/09/30 06:31:27;;;;;;;6.43;2.15;;;;;;;;;;5052596;28;20273;-72
2023/09/30 06:33:52;;;;;;;9.05;2.38;;;;;;;;;;5052404;28;20032;-72
2023/09/30 06:36:17;;;;;;;9.13;2.10;;;;;;;;;;5051777;28;20485;-72
2023/09/30 06:38:44;;;;;;;6.70;2.05;;;;;;;;;;5056089;28;20554;-71
2023/09/30 06:41:15;;;;;;;5.53;2.05;;;;;;;;;;5056183;28;20013;-71
2023/09/30 06:43:40;;;;;;;7.65;2.00;;;;;;;;;;5056410;28;20537;-72
2023/09/30 06:46:09;;;;;;;6.07;1.92;;;;;;;;;;5056052;28;20029;-72
2023/09/30 06:48:34;;;;;;;10.23;2.00;;;;;;;;;;5056486;28;20032;-72
2023/09/30 06:51:00;;;;;;;9.75;2.30;;;;;;;;;;5054493;28;20021;-72
2023/09/30 06:53:25;;;;;;;8.90;2.20;;;;;;;;;;5056049;28;20570;-70
2023/09/30 06:55:53;;;;;;;9.73;2.27;;;;;;;;;;5055905;28;20029;-71
2023/09/30 06:58:21;;;;;;;7.25;2.10;;;;;;;;;;5055749;28;20681;-71
2023/09/30 07:00:52;;;;;;;10.65;2.38;;;;;;;;;;5054434;28;20067;-70
2023/09/30 07:03:19;;;;;;;10.38;2.22;;;;;;;;;;5054509;28;20031;-71
2023/09/30 07:05:44;;;;;;;8.18;2.03;;;;;;;;;;5055826;28;20047;-72
2023/09/30 07:08:10;;;;;;;10.15;2.60;;;;;;;;;;5055894;28;20471;-72
2023/09/30 07:10:35;;;;;;;11.90;2.38;;;;;;;;;;5056030;28;20021;-71
2023/09/30 07:13:04;;;;;;;7.05;2.38;;;;;;;;;;5055682;28;20028;-71
2023/09/30 07:15:29;;;;;;;8.02;2.50;;;;;;;;;;5055682;28;20025;-71
2023/09/30 07:17:55;;;;;;;8.95;2.20;;;;;;;;;;5055868;28;20472;-72
2023/09/30 07:20:22;;;;;;;9.93;2.40;;;;;;;;;;5054351;28;20112;-72
2023/09/30 07:22:48;;;;;;;8.98;2.40;;;;;;;;;;5055572;28;20128;-72
2023/09/30 07:25:16;;;;;;;9.48;2.00;;;;;;;;;;5055482;28;20480;-71
2023/09/30 07:27:41;;;;;;;10.80;2.33;;;;;;;;;;5055533;28;20021;-70
2023/09/30 07:30:07;;;;;;;7.45;1.92;;;;;;;;;;5054023;28;20032;-71
2023/09/30 07:32:32;;;;;;;7.40;2.25;;;;;;;;;;5055285;28;20039;-71
2023/09/30 07:34:58;;;;;;;7.37;2.17;;;;;;;;;;5055168;28;20116;-71
2023/09/30 07:37:23;;;;;;;10.02;2.30;;;;;;;;;;5055241;28;20246;-71
2023/09/30 07:39:48;;;;;;;8.27;2.08;;;;;;;;;;5054938;28;20020;-71
2023/09/30 07:42:14;;;;;;;18.80;3.47;;;;;;;;;;5055052;28;20029;-71
2023/09/30 07:44:39;;;;;;;11.00;2.70;;;;;;;;;;5054996;28;20391;-71
2023/09/30 07:47:06;;;;;;;12.52;3.10;;;;;;;;;;5054796;28;20017;-71
2023/09/30 07:49:32;;;;;;;9.15;2.25;;;;;;;;;;5054535;28;20029;-71
2023/09/30 07:51:57;;;;;;;14.00;2.17;;;;;;;;;;5055138;28;20033;-71
2023/09/30 07:54:23;;;;;;;8.40;1.92;;;;;;;;;;5054685;28;20028;-71
2023/09/30 07:56:49;;;;;;;11.00;2.30;;;;;;;;;;5054801;28;20099;-71
2023/09/30 07:59:15;;;;;;;8.35;1.90;;;;;;;;;;5054608;28;20115;-71
2023/09/30 08:01:41;;;;;;;6.60;1.83;;;;;;;;;;5054745;28;20029;-71
2023/09/30 08:04:06;;;;;;;7.72;2.15;;;;;;;;;;5054716;28;20031;-71
2023/09/30 08:06:32;;;;;;;12.05;2.35;;;;;;;;;;5053614;28;20116;-71
2023/09/30 08:08:57;;;;;;;8.65;2.17;;;;;;;;;;5054474;28;20116;-71
2023/09/30 08:11:23;;;;;;;6.80;1.98;;;;;;;;;;5054435;28;20078;-71
2023/09/30 08:13:48;;;;;;;5.35;1.80;;;;;;;;;;5053262;28;20108;-71
2023/09/30 08:16:13;;;;;;;8.57;2.10;;;;;;;;;;5054462;28;20463;-71
2023/09/30 08:18:38;;;;;;;5.43;1.77;;;;;;;;;;5054321;28;20395;-71
2023/09/30 08:21:04;;;;;;;9.95;2.25;;;;;;;;;;5054317;28;20087;-71
2023/09/30 08:23:30;;;;;;;8.52;1.92;;;;;;;;;;5052959;28;20534;-71
2023/09/30 08:25:58;;;;;;;11.30;2.00;;;;;;;;;;5052911;28;20036;-71
2023/09/30 08:28:24;;;;;;;7.85;1.98;;;;;;;;;;5054205;28;20369;-71
2023/09/30 08:30:50;;;;;;;9.65;2.03;;;;;;;;;;5053022;28;20024;-70
2023/09/30 08:33:16;;;;;;;9.60;2.15;;;;;;;;;;5052837;28;20029;-71
2023/09/30 08:35:41;;;;;;;13.90;3.08;;;;;;;;;;5054267;28;20048;-71
2023/09/30 08:38:06;;;;;;;10.90;2.00;;;;;;;;;;5052846;28;20122;-71
2023/09/30 08:40:32;;;;;;;9.20;1.80;;;;;;;;;;5054123;28;20092;-71
2023/09/30 08:42:57;;;;;;;7.53;1.92;;;;;;;;;;5053934;28;20507;-71
2023/09/30 08:45:23;;;;;;;10.15;2.00;;;;;;;;;;5053807;28;20075;-71
2023/09/30 08:47:48;;;;;;;12.10;2.30;;;;;;;;;;5053769;28;20056;-71
2023/09/30 08:50:15;;;;;;;9.15;2.22;;;;;;;;;;5052361;28;20075;-71
2023/09/30 08:52:41;;;;;;;10.20;1.98;;;;;;;;;;5054061;28;20025;-71
2023/09/30 08:55:08;;;;;;;6.07;1.85;;;;;;;;;;5052377;28;20419;-71
2023/09/30 08:57:40;;;;;;;7.50;1.70;;;;;;;;;;5053523;28;20078;-72
2023/09/30 09:00:06;;;;;;;14.93;2.50;;;;;;;;;;5053157;28;20021;-71
2023/09/30 09:02:34;;;;;;;13.80;2.22;;;;;;;;;;5053442;28;20033;-71
2023/09/30 09:05:01;;;;;;;9.00;2.10;;;;;;;;;;5052209;28;20029;-71
2023/09/30 09:07:26;;;;;;;7.30;2.00;;;;;;;;;;5052506;28;20029;-71
2023/09/30 09:10:05;;;;;;;7.07;1.80;;;;;;;;;;5053274;28;20017;-71
2023/09/30 09:12:31;;;;;;;8.05;1.75;;;;;;;;;;5053648;28;20025;-71
2023/09/30 09:14:56;;;;;;;7.60;1.80;;;;;;;;;;5053793;28;20029;-71
2023/09/30 09:17:22;;;;;;;9.20;1.90;;;;;;;;;;5053223;28;20388;-71
2023/09/30 09:20:00;;;;;;;10.75;2.20;;;;;;;;;;5051972;28;20327;-71
2023/09/30 09:22:40;;;;;;;7.97;1.92;;;;;;;;;;5053207;28;20025;-71
2023/09/30 09:25:07;;;;;;;9.57;1.83;;;;;;;;;;5053147;28;20547;-71
2023/09/30 09:27:36;;;;;;;9.88;1.92;;;;;;;;;;5051889;28;20086;-71
2023/09/30 09:30:27;;;;;;;8.73;1.90;;;;;;;;;;5053017;28;20028;-71
2023/09/30 09:33:05;;;;;;;13.20;2.10;;;;;;;;;;5053153;28;20552;-71
2023/09/30 09:35:35;;;;;;;9.43;2.22;;;;;;;;;;5052890;28;20029;-71
2023/09/30 09:38:04;;;;;;;12.75;2.33;;;;;;;;;;5052950;28;20021;-71
2023/09/30 09:40:32;;;;;;;11.85;2.38;;;;;;;;;;5052887;28;20399;-71
2023/09/30 09:42:58;;;;;;;8.52;1.83;;;;;;;;;;5053102;28;20032;-71
2023/09/30 09:45:27;;;;;;;9.75;2.00;;;;;;;;;;5053163;28;20079;-71
2023/09/30 09:47:54;;;;;;;7.10;2.10;;;;;;;;;;5051594;28;20480;-71
2023/09/30 09:50:21;;;;;;;5.63;1.90;;;;;;;;;;5052573;28;20546;-71
2023/09/30 09:52:50;;;;;;;8.00;1.67;;;;;;;;;;5052857;28;20051;-71
2023/09/30 09:55:17;;;;;;;8.88;2.10;;;;;;;;;;5051395;28;20025;-71
2023/09/30 09:57:43;;;;;;;7.25;2.08;;;;;;;;;;5051466;28;20029;-71
2023/09/30 10:00:14;;;;;;;8.23;1.77;;;;;;;;;;5052987;28;20074;-71
2023/09/30 10:02:40;;;;;;;6.00;1.83;;;;;;;;;;5052630;28;20029;-71
2023/09/30 10:05:06;;;;;;;7.32;1.65;;;;;;;;;;5052734;28;20039;-71
2023/09/30 10:07:37;;;;;;;8.13;1.80;;;;;;;;;;5052909;28;20028;-71
2023/09/30 10:10:07;;;;;;;11.13;2.20;;;;;;;;;;5052712;28;20017;-71
2023/09/30 10:12:38;;;;;;;6.45;1.77;;;;;;;;;;5055690;28;20037;-71
2023/09/30 10:15:35;;;;;;;7.25;1.50;;;;;;;;;;5055304;28;20496;-71
2023/09/30 10:18:12;;;;;;;7.28;2.30;;;;;;;;;;5057511;28;20422;-71
2023/09/30 10:20:44;;;;;;;7.28;2.15;;;;;;;;;;5056518;28;20100;-71
2023/09/30 10:23:25;;;;;;;8.38;1.83;;;;;;;;;;5056489;28;20028;-71
2023/09/30 10:26:15;;;;;;;7.35;1.73;;;;;;;;;;5056577;28;20558;-71
2023/09/30 10:28:46;;;;;;;9.50;1.55;;;;;;;;;;5055157;28;20029;-71
2023/09/30 10:31:17;;;;;;;9.48;2.00;;;;;;;;;;5056311;28;20024;-71
2023/09/30 10:34:06;;;;;;;7.75;1.73;;;;;;;;;;5056603;28;20049;-71
2023/09/30 10:36:38;;;;;;;7.50;1.52;;;;;;;;;;5052770;28;20078;-71
2023/09/30 10:39:03;;;;;;;6.85;1.80;;;;;;;;;;5054693;28;20024;-72
2023/09/30 10:41:40;;;;;;;3.97;1.25;;;;;;;;;;5056108;28;20021;-71
2023/09/30 10:44:25;;;;;;;9.32;1.63;;;;;;;;;;5054723;28;20511;-71
2023/09/30 10:46:50;;;;;;;;;;;;;;;;;;5056469;28;20024;-71
2023/09/30 10:49:20;;;;;;;4.38;1.50;;;;;;;;;;5055701;28;20260;-71
2023/09/30 10:51:46;;;;;;;7.95;1.80;;;;;;;;;;5054574;28;20037;-72
2023/09/30 10:54:13;;;;;;;8.50;1.88;;;;;;;;;;5055873;28;20024;-71
2023/09/30 10:56:38;;;;;;;16.52;1.75;;;;;;;;;;5054859;28;20146;-71
2023/09/30 10:59:04;;;;;;;11.90;2.00;;;;;;;;;;5055746;28;20041;-71
2023/09/30 11:01:36;;;;;;;9.45;1.70;;;;;;;;;;5056071;28;20025;-71
2023/09/30 11:04:04;;;;;;;10.32;1.65;;;;;;;;;;5055738;28;20538;-71
2023/09/30 11:06:29;;;;;;;7.68;2.00;;;;;;;;;;5055596;28;20028;-71
2023/09/30 11:09:00;;;;;;;5.97;1.67;;;;;;;;;;5055572;28;20036;-71
2023/09/30 11:11:35;;;;;;;6.28;1.55;;;;;;;;;;5055856;28;20038;-71
2023/09/30 11:14:00;;;;;;;4.55;1.40;;;;;;;;;;5055725;28;20029;-71
2023/09/30 11:16:25;;;;;;;9.43;1.85;;;;;;;;;;5055558;28;20365;-72
2023/09/30 11:18:54;;;;;;;6.53;1.60;;;;;;;;;;5055409;28;20033;-71
2023/09/30 11:21:22;;;;;;;4.93;1.67;;;;;;;;;;5055457;28;20480;-71
2023/09/30 11:23:47;;;;;;;8.70;1.88;;;;;;;;;;5054952;28;20148;-72
2023/09/30 11:26:13;;;;;;;5.70;1.50;;;;;;;;;;5055308;28;20033;-72
2023/09/30 11:28:44;;;;;;;8.63;1.77;;;;;;;;;;5055833;28;20104;-72
2023/09/30 11:31:14;;;;;;;9.38;1.80;;;;;;;;;;5055277;28;20025;-71
2023/09/30 11:33:53;;;;;;;9.52;2.15;;;;;;;;;;5055206;28;20028;-71
2023/09/30 11:36:20;;;;;;;6.90;1.90;;;;;;;;;;5053928;28;20480;-71
2023/09/30 11:38:48;;;;;;;7.43;1.83;;;;;;;;;;5055168;28;20040;-71
2023/09/30 11:41:13;;;;;;;6.13;1.58;;;;;;;;;;5055143;28;20092;-72
2023/09/30 11:43:39;;;;;;;6.50;1.48;;;;;;;;;;5055063;28;20025;-72
2023/09/30 11:46:05;;;;;;;7.22;1.60;;;;;;;;;;5055009;28;20029;-72
2023/09/30 11:48:31;;;;;;;5.32;1.55;;;;;;;;;;5054912;28;20021;-71
2023/09/30 11:51:00;;;;;;;8.20;1.80;;;;;;;;;;5053470;28;20108;-73
2023/09/30 11:53:25;;;;;;;7.88;1.75;;;;;;;;;;5054923;28;20052;-72
2023/09/30 11:55:54;;;;;;;5.63;1.50;;;;;;;;;;5054842;28;20021;-71
2023/09/30 11:58:20;;;;;;;7.85;1.70;;;;;;;;;;5053550;28;20116;-72
2023/09/30 12:00:45;;;;;;;5.95;1.70;;;;;;;;;;5054839;28;20100;-71
2023/09/30 12:03:10;;;;;;;9.73;1.60;;;;;;;;;;5054878;28;20032;-72
2023/09/30 12:05:36;;;;;;;5.97;1.48;;;;;;;;;;5053327;28;20021;-71
2023/09/30 12:08:02;;;;;;;6.13;1.55;;;;;;;;;;5054662;28;20083;-72
2023/09/30 12:10:28;;;;;;;7.72;1.67;;;;;;;;;;5054297;28;20036;-72
2023/09/30 12:12:53;;;;;;;6.60;1.65;;;;;;;;;;5053251;28;20033;-71
2023/09/30 12:15:19;;;;;;;5.50;1.40;;;;;;;;;;5054384;28;20017;-71
2023/09/30 12:17:45;;;;;;;7.05;1.50;;;;;;;;;;5054397;28;20258;-72
2023/09/30 12:20:10;;;;;;;8.70;1.67;;;;;;;;;;5054298;28;20032;-72
2023/09/30 12:22:37;;;;;;;4.75;1.50;;;;;;;;;;5054215;28;20254;-71
2023/09/30 12:25:02;;;;;;;10.60;1.83;;;;;;;;;;5054364;28;20024;-71
2023/09/30 12:27:28;;;;;;;5.68;1.52;;;;;;;;;;5054224;28;20083;-74
2023/09/30 12:29:53;;;;;;;9.02;1.70;;;;;;;;;;5054241;28;20021;-72
2023/09/30 12:32:18;;;;;;;7.10;1.35;;;;;;;;;;5054091;28;20033;-72
2023/09/30 12:34:44;;;;;;;7.77;1.83;;;;;;;;;;5053209;28;20025;-72
2023/09/30 12:37:09;;;;;;;5.20;1.55;;;;;;;;;;5052746;28;20250;-72
2023/09/30 12:39:36;;;;;;;5.63;1.58;;;;;;;;;;5052596;28;20064;-72
2023/09/30 12:42:01;;;;;;;5.68;1.50;;;;;;;;;;5053950;28;20112;-72
2023/09/30 12:44:27;;;;;;;7.18;1.70;;;;;;;;;;5052647;28;20059;-71
2023/09/30 12:46:52;;;;;;;4.43;1.27;;;;;;;;;;5053805;28;20117;-72
2023/09/30 12:49:18;;;;;;;6.60;1.35;;;;;;;;;;5052266;28;20767;-72
2023/09/30 12:51:43;;;;;;;6.95;1.50;;;;;;;;;;5053749;28;20028;-71
2023/09/30 12:54:10;;;;;;;4.05;1.17;;;;;;;;;;5052758;28;20392;-71
2023/09/30 12:56:35;;;;;;;5.78;1.63;;;;;;;;;;5053672;28;20025;-72
2023/09/30 12:59:01;;;;;;;4.95;1.50;;;;;;;;;;5053519;28;20029;-71
2023/09/30 13:01:28;;;;;;;5.10;1.50;;;;;;;;;;5053635;28;20103;-71
2023/09/30 13:03:53;;;;;;;7.05;1.70;;;;;;;;;;5053101;28;20677;-72
2023/09/30 13:06:19;;;;;;;7.82;1.58;;;;;;;;;;5053310;28;20121;-71
2023/09/30 13:08:45;;;;;;;7.60;1.90;;;;;;;;;;5053480;28;20024;-71
2023/09/30 13:11:13;;;;;;;8.40;1.70;;;;;;;;;;5053280;28;20041;-72
2023/09/30 13:13:39;;;;;;;4.70;1.30;;;;;;;;;;5053306;28;20491;-71
2023/09/30 13:16:08;;;;;;;7.93;1.48;;;;;;;;;;5053108;28;20040;-72
2023/09/30 13:18:33;;;;;;;7.10;1.50;;;;;;;;;;5053622;28;20103;-71
2023/09/30 13:20:59;;;;;;;8.15;1.98;;;;;;;;;;5053195;28;20051;-72
2023/09/30 13:23:24;;;;;;;8.57;1.52;;;;;;;;;;5053109;28;20025;-72
2023/09/30 13:25:50;;;;;;;5.90;1.50;;;;;;;;;;5053378;28;20502;-72
2023/09/30 13:28:15;;;;;;;4.55;1.58;;;;;;;;;;5053465;28;20021;-72
2023/09/30 13:30:40;;;;;;;8.15;1.45;;;;;;;;;;5051486;28;20017;-72
2023/09/30 13:33:06;;;;;;;4.40;1.50;;;;;;;;;;5053208;28;20035;-71
2023/09/30 13:35:31;;;;;;;5.93;1.70;;;;;;;;;;5052936;28;20031;-71
2023/09/30 13:37:57;;;;;;;6.85;1.20;;;;;;;;;;5051705;28;20033;-71
2023/09/30 13:40:22;;;;;;;9.32;1.40;;;;;;;;;;5051592;28;20118;-72
2023/09/30 13:42:47;;;;;;;3.10;1.20;;;;;;;;;;5052904;28;20551;-72
2023/09/30 13:45:12;;;;;;;10.37;1.63;;;;;;;;;;5052637;28;20028;-72
2023/09/30 13:47:38;;;;;;;7.45;1.63;;;;;;;;;;5051655;28;20261;-72
2023/09/30 13:50:04;;;;;;;7.68;1.40;;;;;;;;;;5051208;28;20037;-72
2023/09/30 13:52:29;;;;;;;8.82;1.88;;;;;;;;;;5053044;28;20029;-72
2023/09/30 13:54:55;;;;;;;4.22;1.52;;;;;;;;;;5052671;28;20033;-72
2023/09/30 13:57:20;;;;;;;6.95;1.70;;;;;;;;;;5052730;28;20116;-72
2023/09/30 13:59:46;;;;;;;4.18;0.93;;;;;;;;;;5052664;28;20024;-72
2023/09/30 14:02:12;;;;;;;10.27;1.40;;;;;;;;;;5052693;28;20396;-72
2023/09/30 14:04:37;;;;;;;4.03;1.17;;;;;;;;;;5051461;28;20511;-72
2023/09/30 14:07:03;;;;;;;8.15;1.40;;;;;;;;;;5052685;28;20044;-72
2023/09/30 14:09:28;;;;;;;6.05;1.45;;;;;;;;;;5052511;28;20025;-72
2023/09/30 14:11:54;;;;;;;5.53;1.40;;;;;;;;;;5052902;28;20029;-72
2023/09/30 14:14:20;;;;;;;6.47;1.58;;;;;;;;;;5052641;28;20059;-72
2023/09/30 14:16:46;;;;;;;5.47;1.42;;;;;;;;;;5052720;28;20401;-72
2023/09/30 14:19:13;;;;;;;6.15;1.45;;;;;;;;;;5052401;28;20147;-72
2023/09/30 14:21:39;;;;;;;6.70;1.48;;;;;;;;;;5052576;28;20500;-72
2023/09/30 14:24:04;;;;;;;6.20;1.50;;;;;;;;;;5053182;28;20106;-72
2023/09/30 14:26:29;;;;;;;5.95;1.40;;;;;;;;;;5052820;28;20511;-72
2023/09/30 14:28:55;;;;;;;4.80;1.20;;;;;;;;;;5052491;28;20029;-72
2023/09/30 14:31:21;;;;;;;6.50;1.60;;;;;;;;;;5052505;28;20017;-72
2023/09/30 14:33:46;;;;;;;4.90;1.48;;;;;;;;;;5052573;28;20029;-72
2023/09/30 14:36:11;;;;;;;5.47;1.50;;;;;;;;;;5052570;28;20542;-72
2023/09/30 14:38:37;;;;;;;4.20;1.33;;;;;;;;;;5052630;28;20254;-72